<?xml version="1.0" encoding="UTF-8" standalone="no" ?>
<gpx xmlns="http://www.topografix.com/GPX/1/1" xmlns:xsi="http://www.w3.org/2001/XMLSchema-instance" xsi:schemaLocation="http://www.topografix.com/GPX/1/1 http://www.topografix.com/GPX/1/1/gpx.xsd" version="1.1" creator="VisuGPX - https://www.visugpx.com">
  <metadata>
    <name>Circuit de Montot 9,2 Km</name>
  </metadata>
  <trk>
    <name><![CDATA[Recey 06 Aout 2025 9,3 Km]]></name>
    <extensions>
      <line xmlns="http://www.topografix.com/GPX/gpx_style/0/2">
        <color>0000FF</color>
        <width>4</width>
      </line>
    </extensions>
    <trkseg>
      <trkpt lat="47.7817" lon="4.85762">
        <ele>315.75</ele>
        <time>2025-08-06T07:14:17Z</time>
      </trkpt>
      <trkpt lat="47.78176" lon="4.85753">
        <ele>316.37</ele>
        <time>2025-08-06T07:14:43Z</time>
      </trkpt>
      <trkpt lat="47.78185" lon="4.8574">
        <ele>315.9</ele>
        <time>2025-08-06T07:15:30Z</time>
      </trkpt>
      <trkpt lat="47.78184" lon="4.8573">
        <ele>316.01</ele>
        <time>2025-08-06T07:15:49Z</time>
      </trkpt>
      <trkpt lat="47.78176" lon="4.85712">
        <ele>315.33</ele>
        <time>2025-08-06T07:16:23Z</time>
      </trkpt>
      <trkpt lat="47.78178" lon="4.85693">
        <ele>314.55</ele>
        <time>2025-08-06T07:16:37Z</time>
      </trkpt>
      <trkpt lat="47.78195" lon="4.8563">
        <ele>312.18</ele>
        <time>2025-08-06T07:17:37Z</time>
      </trkpt>
      <trkpt lat="47.78196" lon="4.85629">
        <ele>312.79</ele>
        <time>2025-08-06T07:17:38Z</time>
      </trkpt>
      <trkpt lat="47.7821" lon="4.8561">
        <ele>312.24</ele>
        <time>2025-08-06T07:17:56Z</time>
      </trkpt>
      <trkpt lat="47.78229" lon="4.85586">
        <ele>311.91</ele>
        <time>2025-08-06T07:18:27Z</time>
      </trkpt>
      <trkpt lat="47.78264" lon="4.85608">
        <ele>314.09</ele>
        <time>2025-08-06T07:19:01Z</time>
      </trkpt>
      <trkpt lat="47.78296" lon="4.85639">
        <ele>317.67</ele>
        <time>2025-08-06T07:19:35Z</time>
      </trkpt>
      <trkpt lat="47.78331" lon="4.85671">
        <ele>321.61</ele>
        <time>2025-08-06T07:20:21Z</time>
      </trkpt>
      <trkpt lat="47.78362" lon="4.85696">
        <ele>324.6</ele>
        <time>2025-08-06T07:20:56Z</time>
      </trkpt>
      <trkpt lat="47.78412" lon="4.85725">
        <ele>329.03</ele>
        <time>2025-08-06T07:21:46Z</time>
      </trkpt>
      <trkpt lat="47.78413" lon="4.85725">
        <ele>328.97</ele>
        <time>2025-08-06T07:21:51Z</time>
      </trkpt>
      <trkpt lat="47.78414" lon="4.85726">
        <ele>328.62</ele>
        <time>2025-08-06T07:21:52Z</time>
      </trkpt>
      <trkpt lat="47.78434" lon="4.85736">
        <ele>331.01</ele>
        <time>2025-08-06T07:22:12Z</time>
      </trkpt>
      <trkpt lat="47.78449" lon="4.85739">
        <ele>331.7</ele>
        <time>2025-08-06T07:22:26Z</time>
      </trkpt>
      <trkpt lat="47.78495" lon="4.85744">
        <ele>334.83</ele>
        <time>2025-08-06T07:23:08Z</time>
      </trkpt>
      <trkpt lat="47.78496" lon="4.85744">
        <ele>334.31</ele>
        <time>2025-08-06T07:23:09Z</time>
      </trkpt>
      <trkpt lat="47.78502" lon="4.85746">
        <ele>335.01</ele>
        <time>2025-08-06T07:23:15Z</time>
      </trkpt>
      <trkpt lat="47.78511" lon="4.85747">
        <ele>336.09</ele>
        <time>2025-08-06T07:23:26Z</time>
      </trkpt>
      <trkpt lat="47.78544" lon="4.85769">
        <ele>337.38</ele>
        <time>2025-08-06T07:23:56Z</time>
      </trkpt>
      <trkpt lat="47.78619" lon="4.85835">
        <ele>340.19</ele>
        <time>2025-08-06T07:25:06Z</time>
      </trkpt>
      <trkpt lat="47.78721" lon="4.85933">
        <ele>342.6</ele>
        <time>2025-08-06T07:26:46Z</time>
      </trkpt>
      <trkpt lat="47.78755" lon="4.85967">
        <ele>344.31</ele>
        <time>2025-08-06T07:27:20Z</time>
      </trkpt>
      <trkpt lat="47.78844" lon="4.86058">
        <ele>348.12</ele>
        <time>2025-08-06T07:28:50Z</time>
      </trkpt>
      <trkpt lat="47.7886" lon="4.86073">
        <ele>348.37</ele>
        <time>2025-08-06T07:29:07Z</time>
      </trkpt>
      <trkpt lat="47.78998" lon="4.86185">
        <ele>349.25</ele>
        <time>2025-08-06T07:31:12Z</time>
      </trkpt>
      <trkpt lat="47.79006" lon="4.8619">
        <ele>349.57</ele>
        <time>2025-08-06T07:31:51Z</time>
      </trkpt>
      <trkpt lat="47.79041" lon="4.86216">
        <ele>349.35</ele>
        <time>2025-08-06T07:32:27Z</time>
      </trkpt>
      <trkpt lat="47.79085" lon="4.86272">
        <ele>348.7</ele>
        <time>2025-08-06T07:33:14Z</time>
      </trkpt>
      <trkpt lat="47.79146" lon="4.86266">
        <ele>349.83</ele>
        <time>2025-08-06T07:34:04Z</time>
      </trkpt>
      <trkpt lat="47.79206" lon="4.86257">
        <ele>349.63</ele>
        <time>2025-08-06T07:34:52Z</time>
      </trkpt>
      <trkpt lat="47.79335" lon="4.8622">
        <ele>352.25</ele>
        <time>2025-08-06T07:36:34Z</time>
      </trkpt>
      <trkpt lat="47.79355" lon="4.86216">
        <ele>352.49</ele>
        <time>2025-08-06T07:36:51Z</time>
      </trkpt>
      <trkpt lat="47.79402" lon="4.86201">
        <ele>355.68</ele>
        <time>2025-08-06T07:37:30Z</time>
      </trkpt>
      <trkpt lat="47.79453" lon="4.86183">
        <ele>360.82</ele>
        <time>2025-08-06T07:38:12Z</time>
      </trkpt>
      <trkpt lat="47.79492" lon="4.86168">
        <ele>364.66</ele>
        <time>2025-08-06T07:38:46Z</time>
      </trkpt>
      <trkpt lat="47.79533" lon="4.86149">
        <ele>369.42</ele>
        <time>2025-08-06T07:39:22Z</time>
      </trkpt>
      <trkpt lat="47.79564" lon="4.86141">
        <ele>374.78</ele>
        <time>2025-08-06T07:39:52Z</time>
      </trkpt>
      <trkpt lat="47.7961" lon="4.86118">
        <ele>378.95</ele>
        <time>2025-08-06T07:40:41Z</time>
      </trkpt>
      <trkpt lat="47.79646" lon="4.86102">
        <ele>382.77</ele>
        <time>2025-08-06T07:41:16Z</time>
      </trkpt>
      <trkpt lat="47.79656" lon="4.86097">
        <ele>384.07</ele>
        <time>2025-08-06T07:41:25Z</time>
      </trkpt>
      <trkpt lat="47.79681" lon="4.86086">
        <ele>386.5</ele>
        <time>2025-08-06T07:41:48Z</time>
      </trkpt>
      <trkpt lat="47.79701" lon="4.86079">
        <ele>388.69</ele>
        <time>2025-08-06T07:42:07Z</time>
      </trkpt>
      <trkpt lat="47.79737" lon="4.8607">
        <ele>392.83</ele>
        <time>2025-08-06T07:42:39Z</time>
      </trkpt>
      <trkpt lat="47.79739" lon="4.86069">
        <ele>392.68</ele>
        <time>2025-08-06T07:42:41Z</time>
      </trkpt>
      <trkpt lat="47.79766" lon="4.86065">
        <ele>396.22</ele>
        <time>2025-08-06T07:43:04Z</time>
      </trkpt>
      <trkpt lat="47.79776" lon="4.86064">
        <ele>397.56</ele>
        <time>2025-08-06T07:43:13Z</time>
      </trkpt>
      <trkpt lat="47.798" lon="4.86074">
        <ele>398.92</ele>
        <time>2025-08-06T07:43:33Z</time>
      </trkpt>
      <trkpt lat="47.7982" lon="4.86089">
        <ele>399.74</ele>
        <time>2025-08-06T07:43:51Z</time>
      </trkpt>
      <trkpt lat="47.79856" lon="4.8611">
        <ele>401.09</ele>
        <time>2025-08-06T07:44:22Z</time>
      </trkpt>
      <trkpt lat="47.79857" lon="4.8611">
        <ele>401</ele>
        <time>2025-08-06T07:44:23Z</time>
      </trkpt>
      <trkpt lat="47.79883" lon="4.86122">
        <ele>402.76</ele>
        <time>2025-08-06T07:44:45Z</time>
      </trkpt>
      <trkpt lat="47.79889" lon="4.86128">
        <ele>403.23</ele>
        <time>2025-08-06T07:44:53Z</time>
      </trkpt>
      <trkpt lat="47.79915" lon="4.86145">
        <ele>404.26</ele>
        <time>2025-08-06T07:45:17Z</time>
      </trkpt>
      <trkpt lat="47.7994" lon="4.86159">
        <ele>404.95</ele>
        <time>2025-08-06T07:45:39Z</time>
      </trkpt>
      <trkpt lat="47.80001" lon="4.862">
        <ele>408.22</ele>
        <time>2025-08-06T07:46:34Z</time>
      </trkpt>
      <trkpt lat="47.80044" lon="4.86236">
        <ele>409.92</ele>
        <time>2025-08-06T07:47:13Z</time>
      </trkpt>
      <trkpt lat="47.80101" lon="4.86272">
        <ele>413.23</ele>
        <time>2025-08-06T07:48:03Z</time>
      </trkpt>
      <trkpt lat="47.80141" lon="4.86292">
        <ele>416.33</ele>
        <time>2025-08-06T07:48:37Z</time>
      </trkpt>
      <trkpt lat="47.80145" lon="4.86293">
        <ele>416.46</ele>
        <time>2025-08-06T07:49:14Z</time>
      </trkpt>
      <trkpt lat="47.80146" lon="4.86283">
        <ele>417.32</ele>
        <time>2025-08-06T07:51:46Z</time>
      </trkpt>
      <trkpt lat="47.80145" lon="4.86289">
        <ele>420.41</ele>
        <time>2025-08-06T07:55:13Z</time>
      </trkpt>
      <trkpt lat="47.80143" lon="4.86291">
        <ele>418.24</ele>
        <time>2025-08-06T07:56:28Z</time>
      </trkpt>
      <trkpt lat="47.80143" lon="4.86298">
        <ele>418.55</ele>
        <time>2025-08-06T07:59:31Z</time>
      </trkpt>
      <trkpt lat="47.80145" lon="4.86295">
        <ele>419.01</ele>
        <time>2025-08-06T08:02:20Z</time>
      </trkpt>
      <trkpt lat="47.80145" lon="4.86296">
        <ele>415.99</ele>
        <time>2025-08-06T08:02:31Z</time>
      </trkpt>
      <trkpt lat="47.80145" lon="4.86296">
        <ele>421.41</ele>
        <time>2025-08-06T08:02:33Z</time>
      </trkpt>
      <trkpt lat="47.80145" lon="4.86296">
        <ele>420.27</ele>
        <time>2025-08-06T08:02:34Z</time>
      </trkpt>
      <trkpt lat="47.80158" lon="4.86325">
        <ele>421.05</ele>
        <time>2025-08-06T08:03:11Z</time>
      </trkpt>
      <trkpt lat="47.80171" lon="4.86351">
        <ele>422.39</ele>
        <time>2025-08-06T08:03:31Z</time>
      </trkpt>
      <trkpt lat="47.8021" lon="4.86453">
        <ele>422.66</ele>
        <time>2025-08-06T08:04:43Z</time>
      </trkpt>
      <trkpt lat="47.80256" lon="4.86528">
        <ele>421</ele>
        <time>2025-08-06T08:05:49Z</time>
      </trkpt>
      <trkpt lat="47.80265" lon="4.86556">
        <ele>421.01</ele>
        <time>2025-08-06T08:06:07Z</time>
      </trkpt>
      <trkpt lat="47.80282" lon="4.86612">
        <ele>420.93</ele>
        <time>2025-08-06T08:06:46Z</time>
      </trkpt>
      <trkpt lat="47.80307" lon="4.86686">
        <ele>420.2</ele>
        <time>2025-08-06T08:07:37Z</time>
      </trkpt>
      <trkpt lat="47.80342" lon="4.86791">
        <ele>420.17</ele>
        <time>2025-08-06T08:08:49Z</time>
      </trkpt>
      <trkpt lat="47.80358" lon="4.8684">
        <ele>419.23</ele>
        <time>2025-08-06T08:09:23Z</time>
      </trkpt>
      <trkpt lat="47.80389" lon="4.86905">
        <ele>418.08</ele>
        <time>2025-08-06T08:10:17Z</time>
      </trkpt>
      <trkpt lat="47.80412" lon="4.86954">
        <ele>417.37</ele>
        <time>2025-08-06T08:11:02Z</time>
      </trkpt>
      <trkpt lat="47.80448" lon="4.87018">
        <ele>416.42</ele>
        <time>2025-08-06T08:11:54Z</time>
      </trkpt>
      <trkpt lat="47.8047" lon="4.87078">
        <ele>417.52</ele>
        <time>2025-08-06T08:12:37Z</time>
      </trkpt>
      <trkpt lat="47.80493" lon="4.87091">
        <ele>415.62</ele>
        <time>2025-08-06T08:13:00Z</time>
      </trkpt>
      <trkpt lat="47.80518" lon="4.87167">
        <ele>415.67</ele>
        <time>2025-08-06T08:13:52Z</time>
      </trkpt>
      <trkpt lat="47.80541" lon="4.87213">
        <ele>414.94</ele>
        <time>2025-08-06T08:14:32Z</time>
      </trkpt>
      <trkpt lat="47.80557" lon="4.87239">
        <ele>413.06</ele>
        <time>2025-08-06T08:14:55Z</time>
      </trkpt>
      <trkpt lat="47.80571" lon="4.87285">
        <ele>411.97</ele>
        <time>2025-08-06T08:15:28Z</time>
      </trkpt>
      <trkpt lat="47.80591" lon="4.87313">
        <ele>409.94</ele>
        <time>2025-08-06T08:15:56Z</time>
      </trkpt>
      <trkpt lat="47.80596" lon="4.87327">
        <ele>408.89</ele>
        <time>2025-08-06T08:16:05Z</time>
      </trkpt>
      <trkpt lat="47.80599" lon="4.87332">
        <ele>408.62</ele>
        <time>2025-08-06T08:16:09Z</time>
      </trkpt>
      <trkpt lat="47.80606" lon="4.87351">
        <ele>407.84</ele>
        <time>2025-08-06T08:16:24Z</time>
      </trkpt>
      <trkpt lat="47.80606" lon="4.87378">
        <ele>406.4</ele>
        <time>2025-08-06T08:16:44Z</time>
      </trkpt>
      <trkpt lat="47.80604" lon="4.87414">
        <ele>404.93</ele>
        <time>2025-08-06T08:17:04Z</time>
      </trkpt>
      <trkpt lat="47.80605" lon="4.87472">
        <ele>400.65</ele>
        <time>2025-08-06T08:17:41Z</time>
      </trkpt>
      <trkpt lat="47.80602" lon="4.87488">
        <ele>400.05</ele>
        <time>2025-08-06T08:17:50Z</time>
      </trkpt>
      <trkpt lat="47.80601" lon="4.87527">
        <ele>396.67</ele>
        <time>2025-08-06T08:18:14Z</time>
      </trkpt>
      <trkpt lat="47.80592" lon="4.87577">
        <ele>393</ele>
        <time>2025-08-06T08:18:48Z</time>
      </trkpt>
      <trkpt lat="47.8058" lon="4.87628">
        <ele>389.44</ele>
        <time>2025-08-06T08:19:24Z</time>
      </trkpt>
      <trkpt lat="47.80569" lon="4.87669">
        <ele>387.47</ele>
        <time>2025-08-06T08:20:28Z</time>
      </trkpt>
      <trkpt lat="47.80564" lon="4.8771">
        <ele>383.95</ele>
        <time>2025-08-06T08:21:46Z</time>
      </trkpt>
      <trkpt lat="47.80564" lon="4.87715">
        <ele>384.29</ele>
        <time>2025-08-06T08:21:50Z</time>
      </trkpt>
      <trkpt lat="47.80563" lon="4.87758">
        <ele>380.68</ele>
        <time>2025-08-06T08:22:24Z</time>
      </trkpt>
      <trkpt lat="47.80564" lon="4.87837">
        <ele>375.7</ele>
        <time>2025-08-06T08:23:20Z</time>
      </trkpt>
      <trkpt lat="47.80553" lon="4.87884">
        <ele>370.89</ele>
        <time>2025-08-06T08:23:57Z</time>
      </trkpt>
      <trkpt lat="47.80539" lon="4.87939">
        <ele>366.8</ele>
        <time>2025-08-06T08:24:35Z</time>
      </trkpt>
      <trkpt lat="47.80534" lon="4.87964">
        <ele>364.99</ele>
        <time>2025-08-06T08:24:50Z</time>
      </trkpt>
      <trkpt lat="47.80537" lon="4.87975">
        <ele>363.83</ele>
        <time>2025-08-06T08:24:58Z</time>
      </trkpt>
      <trkpt lat="47.80561" lon="4.88008">
        <ele>362.88</ele>
        <time>2025-08-06T08:25:57Z</time>
      </trkpt>
      <trkpt lat="47.80563" lon="4.88048">
        <ele>367.09</ele>
        <time>2025-08-06T08:27:05Z</time>
      </trkpt>
      <trkpt lat="47.80546" lon="4.88048">
        <ele>368.96</ele>
        <time>2025-08-06T08:27:23Z</time>
      </trkpt>
      <trkpt lat="47.80505" lon="4.88068">
        <ele>369.15</ele>
        <time>2025-08-06T08:28:05Z</time>
      </trkpt>
      <trkpt lat="47.80474" lon="4.88094">
        <ele>372.39</ele>
        <time>2025-08-06T08:28:47Z</time>
      </trkpt>
      <trkpt lat="47.80474" lon="4.88096">
        <ele>370.94</ele>
        <time>2025-08-06T08:28:53Z</time>
      </trkpt>
      <trkpt lat="47.8046" lon="4.88111">
        <ele>374.41</ele>
        <time>2025-08-06T08:29:12Z</time>
      </trkpt>
      <trkpt lat="47.80443" lon="4.88137">
        <ele>378.9</ele>
        <time>2025-08-06T08:29:46Z</time>
      </trkpt>
      <trkpt lat="47.80431" lon="4.88182">
        <ele>385.04</ele>
        <time>2025-08-06T08:30:28Z</time>
      </trkpt>
      <trkpt lat="47.80433" lon="4.88196">
        <ele>385.29</ele>
        <time>2025-08-06T08:30:38Z</time>
      </trkpt>
      <trkpt lat="47.80423" lon="4.88228">
        <ele>389.77</ele>
        <time>2025-08-06T08:31:10Z</time>
      </trkpt>
      <trkpt lat="47.80399" lon="4.8826">
        <ele>393.89</ele>
        <time>2025-08-06T08:31:55Z</time>
      </trkpt>
      <trkpt lat="47.80385" lon="4.88278">
        <ele>398.04</ele>
        <time>2025-08-06T08:32:19Z</time>
      </trkpt>
      <trkpt lat="47.80366" lon="4.88324">
        <ele>402.28</ele>
        <time>2025-08-06T08:33:03Z</time>
      </trkpt>
      <trkpt lat="47.80367" lon="4.88364">
        <ele>405.04</ele>
        <time>2025-08-06T08:33:34Z</time>
      </trkpt>
      <trkpt lat="47.80375" lon="4.88401">
        <ele>407.68</ele>
        <time>2025-08-06T08:34:04Z</time>
      </trkpt>
      <trkpt lat="47.80384" lon="4.88446">
        <ele>411.03</ele>
        <time>2025-08-06T08:34:37Z</time>
      </trkpt>
      <trkpt lat="47.80393" lon="4.88478">
        <ele>414.11</ele>
        <time>2025-08-06T08:35:03Z</time>
      </trkpt>
      <trkpt lat="47.80399" lon="4.88495">
        <ele>414.2</ele>
        <time>2025-08-06T08:35:16Z</time>
      </trkpt>
      <trkpt lat="47.80404" lon="4.88531">
        <ele>417.97</ele>
        <time>2025-08-06T08:35:44Z</time>
      </trkpt>
      <trkpt lat="47.80407" lon="4.88557">
        <ele>418.91</ele>
        <time>2025-08-06T08:36:05Z</time>
      </trkpt>
      <trkpt lat="47.8041" lon="4.88621">
        <ele>420.29</ele>
        <time>2025-08-06T08:36:49Z</time>
      </trkpt>
      <trkpt lat="47.80401" lon="4.88663">
        <ele>419.16</ele>
        <time>2025-08-06T08:37:27Z</time>
      </trkpt>
      <trkpt lat="47.80395" lon="4.88669">
        <ele>418.71</ele>
        <time>2025-08-06T08:38:46Z</time>
      </trkpt>
      <trkpt lat="47.80387" lon="4.88671">
        <ele>418.55</ele>
        <time>2025-08-06T08:40:25Z</time>
      </trkpt>
      <trkpt lat="47.80379" lon="4.88685">
        <ele>418.72</ele>
        <time>2025-08-06T08:41:10Z</time>
      </trkpt>
      <trkpt lat="47.80382" lon="4.88699">
        <ele>419.99</ele>
        <time>2025-08-06T08:42:00Z</time>
      </trkpt>
      <trkpt lat="47.8035" lon="4.88774">
        <ele>418.86</ele>
        <time>2025-08-06T08:43:02Z</time>
      </trkpt>
      <trkpt lat="47.80342" lon="4.88792">
        <ele>418.59</ele>
        <time>2025-08-06T08:43:17Z</time>
      </trkpt>
      <trkpt lat="47.80333" lon="4.88827">
        <ele>415.53</ele>
        <time>2025-08-06T08:43:45Z</time>
      </trkpt>
      <trkpt lat="47.80335" lon="4.88878">
        <ele>412.16</ele>
        <time>2025-08-06T08:44:22Z</time>
      </trkpt>
      <trkpt lat="47.80337" lon="4.88912">
        <ele>408.81</ele>
        <time>2025-08-06T08:45:10Z</time>
      </trkpt>
      <trkpt lat="47.80333" lon="4.88946">
        <ele>404.43</ele>
        <time>2025-08-06T08:45:42Z</time>
      </trkpt>
      <trkpt lat="47.80334" lon="4.88969">
        <ele>401.42</ele>
        <time>2025-08-06T08:46:03Z</time>
      </trkpt>
      <trkpt lat="47.80332" lon="4.89024">
        <ele>396.8</ele>
        <time>2025-08-06T08:46:45Z</time>
      </trkpt>
      <trkpt lat="47.80332" lon="4.89051">
        <ele>396.57</ele>
        <time>2025-08-06T08:47:02Z</time>
      </trkpt>
      <trkpt lat="47.80335" lon="4.89096">
        <ele>393.84</ele>
        <time>2025-08-06T08:47:34Z</time>
      </trkpt>
      <trkpt lat="47.80343" lon="4.89141">
        <ele>391.76</ele>
        <time>2025-08-06T08:48:02Z</time>
      </trkpt>
      <trkpt lat="47.80344" lon="4.8919">
        <ele>389.7</ele>
        <time>2025-08-06T08:48:31Z</time>
      </trkpt>
      <trkpt lat="47.8034" lon="4.8921">
        <ele>388.82</ele>
        <time>2025-08-06T08:49:06Z</time>
      </trkpt>
      <trkpt lat="47.80337" lon="4.89205">
        <ele>388.53</ele>
        <time>2025-08-06T08:50:39Z</time>
      </trkpt>
      <trkpt lat="47.80324" lon="4.89202">
        <ele>388.8</ele>
        <time>2025-08-06T08:51:09Z</time>
      </trkpt>
      <trkpt lat="47.80316" lon="4.892">
        <ele>388.63</ele>
        <time>2025-08-06T08:51:16Z</time>
      </trkpt>
      <trkpt lat="47.80239" lon="4.89177">
        <ele>389.09</ele>
        <time>2025-08-06T08:52:26Z</time>
      </trkpt>
      <trkpt lat="47.80213" lon="4.8917">
        <ele>390.11</ele>
        <time>2025-08-06T08:52:54Z</time>
      </trkpt>
      <trkpt lat="47.80164" lon="4.8916">
        <ele>388.91</ele>
        <time>2025-08-06T08:53:42Z</time>
      </trkpt>
      <trkpt lat="47.80093" lon="4.8914">
        <ele>389.63</ele>
        <time>2025-08-06T08:54:52Z</time>
      </trkpt>
      <trkpt lat="47.80005" lon="4.89113">
        <ele>390.53</ele>
        <time>2025-08-06T08:56:19Z</time>
      </trkpt>
      <trkpt lat="47.79945" lon="4.89101">
        <ele>391.86</ele>
        <time>2025-08-06T08:57:18Z</time>
      </trkpt>
      <trkpt lat="47.7988" lon="4.89095">
        <ele>393.72</ele>
        <time>2025-08-06T08:58:19Z</time>
      </trkpt>
      <trkpt lat="47.79864" lon="4.89093">
        <ele>393.9</ele>
        <time>2025-08-06T08:58:33Z</time>
      </trkpt>
      <trkpt lat="47.79794" lon="4.89092">
        <ele>396.34</ele>
        <time>2025-08-06T08:59:40Z</time>
      </trkpt>
      <trkpt lat="47.79764" lon="4.89089">
        <ele>397.62</ele>
        <time>2025-08-06T09:00:14Z</time>
      </trkpt>
      <trkpt lat="47.79741" lon="4.89088">
        <ele>398.98</ele>
        <time>2025-08-06T09:00:39Z</time>
      </trkpt>
      <trkpt lat="47.79719" lon="4.89105">
        <ele>398.88</ele>
        <time>2025-08-06T09:01:24Z</time>
      </trkpt>
      <trkpt lat="47.79713" lon="4.89094">
        <ele>400.34</ele>
        <time>2025-08-06T09:01:57Z</time>
      </trkpt>
      <trkpt lat="47.79666" lon="4.89089">
        <ele>402.03</ele>
        <time>2025-08-06T09:02:53Z</time>
      </trkpt>
      <trkpt lat="47.79616" lon="4.89082">
        <ele>403.91</ele>
        <time>2025-08-06T09:03:47Z</time>
      </trkpt>
      <trkpt lat="47.79586" lon="4.89072">
        <ele>404.53</ele>
        <time>2025-08-06T09:04:22Z</time>
      </trkpt>
      <trkpt lat="47.79514" lon="4.8905">
        <ele>406.39</ele>
        <time>2025-08-06T09:05:47Z</time>
      </trkpt>
      <trkpt lat="47.79474" lon="4.89025">
        <ele>407.7</ele>
        <time>2025-08-06T09:06:28Z</time>
      </trkpt>
      <trkpt lat="47.79447" lon="4.89007">
        <ele>407.87</ele>
        <time>2025-08-06T09:06:57Z</time>
      </trkpt>
      <trkpt lat="47.79387" lon="4.88967">
        <ele>409.75</ele>
        <time>2025-08-06T09:08:08Z</time>
      </trkpt>
      <trkpt lat="47.79386" lon="4.88936">
        <ele>411.45</ele>
        <time>2025-08-06T09:09:08Z</time>
      </trkpt>
      <trkpt lat="47.79369" lon="4.88956">
        <ele>410.51</ele>
        <time>2025-08-06T09:10:07Z</time>
      </trkpt>
      <trkpt lat="47.79335" lon="4.88922">
        <ele>412.02</ele>
        <time>2025-08-06T09:10:46Z</time>
      </trkpt>
      <trkpt lat="47.79297" lon="4.88898">
        <ele>413.66</ele>
        <time>2025-08-06T09:11:24Z</time>
      </trkpt>
      <trkpt lat="47.7929" lon="4.88889">
        <ele>413.3</ele>
        <time>2025-08-06T09:11:39Z</time>
      </trkpt>
      <trkpt lat="47.7926" lon="4.88864">
        <ele>414.97</ele>
        <time>2025-08-06T09:12:13Z</time>
      </trkpt>
      <trkpt lat="47.79238" lon="4.88846">
        <ele>414.92</ele>
        <time>2025-08-06T09:12:57Z</time>
      </trkpt>
      <trkpt lat="47.79202" lon="4.88813">
        <ele>416.43</ele>
        <time>2025-08-06T09:13:48Z</time>
      </trkpt>
      <trkpt lat="47.7917" lon="4.88779">
        <ele>416.84</ele>
        <time>2025-08-06T09:14:30Z</time>
      </trkpt>
      <trkpt lat="47.79131" lon="4.88741">
        <ele>418.17</ele>
        <time>2025-08-06T09:15:12Z</time>
      </trkpt>
      <trkpt lat="47.79105" lon="4.88715">
        <ele>419.65</ele>
        <time>2025-08-06T09:16:21Z</time>
      </trkpt>
      <trkpt lat="47.79093" lon="4.88703">
        <ele>419.17</ele>
        <time>2025-08-06T09:18:28Z</time>
      </trkpt>
      <trkpt lat="47.79085" lon="4.88695">
        <ele>418.91</ele>
        <time>2025-08-06T09:18:46Z</time>
      </trkpt>
      <trkpt lat="47.79053" lon="4.88651">
        <ele>418.97</ele>
        <time>2025-08-06T09:19:30Z</time>
      </trkpt>
      <trkpt lat="47.7902" lon="4.88592">
        <ele>419.78</ele>
        <time>2025-08-06T09:20:50Z</time>
      </trkpt>
      <trkpt lat="47.78999" lon="4.88548">
        <ele>419.11</ele>
        <time>2025-08-06T09:21:23Z</time>
      </trkpt>
      <trkpt lat="47.78995" lon="4.88544">
        <ele>419.75</ele>
        <time>2025-08-06T09:22:06Z</time>
      </trkpt>
      <trkpt lat="47.78977" lon="4.88493">
        <ele>419.38</ele>
        <time>2025-08-06T09:22:43Z</time>
      </trkpt>
      <trkpt lat="47.78929" lon="4.88378">
        <ele>416.83</ele>
        <time>2025-08-06T09:24:00Z</time>
      </trkpt>
      <trkpt lat="47.7891" lon="4.88336">
        <ele>416.06</ele>
        <time>2025-08-06T09:24:53Z</time>
      </trkpt>
      <trkpt lat="47.78868" lon="4.88231">
        <ele>415.09</ele>
        <time>2025-08-06T09:26:04Z</time>
      </trkpt>
      <trkpt lat="47.78804" lon="4.8812">
        <ele>409.03</ele>
        <time>2025-08-06T09:27:22Z</time>
      </trkpt>
      <trkpt lat="47.78804" lon="4.88118">
        <ele>416.39</ele>
        <time>2025-08-06T09:27:23Z</time>
      </trkpt>
      <trkpt lat="47.78712" lon="4.87922">
        <ele>415.49</ele>
        <time>2025-08-06T09:29:33Z</time>
      </trkpt>
      <trkpt lat="47.78686" lon="4.87849">
        <ele>414.42</ele>
        <time>2025-08-06T09:30:17Z</time>
      </trkpt>
      <trkpt lat="47.78659" lon="4.87802">
        <ele>411.69</ele>
        <time>2025-08-06T09:30:53Z</time>
      </trkpt>
      <trkpt lat="47.78631" lon="4.87711">
        <ele>408.66</ele>
        <time>2025-08-06T09:31:50Z</time>
      </trkpt>
      <trkpt lat="47.78607" lon="4.87598">
        <ele>405.12</ele>
        <time>2025-08-06T09:32:53Z</time>
      </trkpt>
      <trkpt lat="47.78583" lon="4.87555">
        <ele>402.11</ele>
        <time>2025-08-06T09:33:45Z</time>
      </trkpt>
      <trkpt lat="47.7858" lon="4.87552">
        <ele>401.9</ele>
        <time>2025-08-06T09:33:48Z</time>
      </trkpt>
      <trkpt lat="47.7853" lon="4.875">
        <ele>398.62</ele>
        <time>2025-08-06T09:34:41Z</time>
      </trkpt>
      <trkpt lat="47.78499" lon="4.87464">
        <ele>395.32</ele>
        <time>2025-08-06T09:35:16Z</time>
      </trkpt>
      <trkpt lat="47.78476" lon="4.87447">
        <ele>392.09</ele>
        <time>2025-08-06T09:36:06Z</time>
      </trkpt>
      <trkpt lat="47.78458" lon="4.8743">
        <ele>388.4</ele>
        <time>2025-08-06T09:37:09Z</time>
      </trkpt>
      <trkpt lat="47.78472" lon="4.87392">
        <ele>384.63</ele>
        <time>2025-08-06T09:37:43Z</time>
      </trkpt>
      <trkpt lat="47.78479" lon="4.87375">
        <ele>383.05</ele>
        <time>2025-08-06T09:37:55Z</time>
      </trkpt>
      <trkpt lat="47.78476" lon="4.87329">
        <ele>378.35</ele>
        <time>2025-08-06T09:38:25Z</time>
      </trkpt>
      <trkpt lat="47.78466" lon="4.87308">
        <ele>376.47</ele>
        <time>2025-08-06T09:38:40Z</time>
      </trkpt>
      <trkpt lat="47.78445" lon="4.8726">
        <ele>371.54</ele>
        <time>2025-08-06T09:39:13Z</time>
      </trkpt>
      <trkpt lat="47.78414" lon="4.87193">
        <ele>367.23</ele>
        <time>2025-08-06T09:40:04Z</time>
      </trkpt>
      <trkpt lat="47.78379" lon="4.8712">
        <ele>362.73</ele>
        <time>2025-08-06T09:40:54Z</time>
      </trkpt>
      <trkpt lat="47.78348" lon="4.87066">
        <ele>359.17</ele>
        <time>2025-08-06T09:41:41Z</time>
      </trkpt>
      <trkpt lat="47.78346" lon="4.87062">
        <ele>358.42</ele>
        <time>2025-08-06T09:41:50Z</time>
      </trkpt>
      <trkpt lat="47.78314" lon="4.87003">
        <ele>354.43</ele>
        <time>2025-08-06T09:42:29Z</time>
        <extensions>
          <visugpx:TrkExtension xmlns:visugpx="https://www.visugpx.com/editgpx/">
            <visugpx:node>1</visugpx:node>
            </visugpx:TrkExtension>
        </extensions>
      </trkpt>
      <trkpt lat="47.78311" lon="4.86997">
        <ele>354.1</ele>
      </trkpt>
      <trkpt lat="47.78306" lon="4.86987">
        <ele>353.5</ele>
      </trkpt>
      <trkpt lat="47.78299" lon="4.86974">
        <ele>352.6</ele>
      </trkpt>
      <trkpt lat="47.78294" lon="4.86964">
        <ele>351.7</ele>
      </trkpt>
      <trkpt lat="47.78287" lon="4.86954">
        <ele>350.8</ele>
      </trkpt>
      <trkpt lat="47.7828" lon="4.86942">
        <ele>349.9</ele>
      </trkpt>
      <trkpt lat="47.78276" lon="4.86934">
        <ele>349.1</ele>
      </trkpt>
      <trkpt lat="47.7827" lon="4.86923">
        <ele>347.9</ele>
      </trkpt>
      <trkpt lat="47.78263" lon="4.86911">
        <ele>346.7</ele>
      </trkpt>
      <trkpt lat="47.78258" lon="4.869">
        <ele>346</ele>
      </trkpt>
      <trkpt lat="47.7825" lon="4.86883">
        <ele>344.8</ele>
      </trkpt>
      <trkpt lat="47.78241" lon="4.86867">
        <ele>343.5</ele>
      </trkpt>
      <trkpt lat="47.78234" lon="4.86853">
        <ele>342.3</ele>
      </trkpt>
      <trkpt lat="47.78224" lon="4.86836">
        <ele>340.3</ele>
      </trkpt>
      <trkpt lat="47.78218" lon="4.86823">
        <ele>339.3</ele>
      </trkpt>
      <trkpt lat="47.78214" lon="4.86816">
        <ele>338.8</ele>
      </trkpt>
      <trkpt lat="47.7821" lon="4.86808">
        <ele>338.2</ele>
      </trkpt>
      <trkpt lat="47.78207" lon="4.86801">
        <ele>337.6</ele>
      </trkpt>
      <trkpt lat="47.78202" lon="4.86792">
        <ele>336.6</ele>
      </trkpt>
      <trkpt lat="47.78197" lon="4.86781">
        <ele>335.4</ele>
      </trkpt>
      <trkpt lat="47.78191" lon="4.86764">
        <ele>334.2</ele>
      </trkpt>
      <trkpt lat="47.7819" lon="4.86759">
        <ele>333.9</ele>
      </trkpt>
      <trkpt lat="47.78186" lon="4.86744">
        <ele>332.7</ele>
      </trkpt>
      <trkpt lat="47.78181" lon="4.86721">
        <ele>331</ele>
      </trkpt>
      <trkpt lat="47.78175" lon="4.86696">
        <ele>329.4</ele>
      </trkpt>
      <trkpt lat="47.78166" lon="4.86662">
        <ele>326.8</ele>
      </trkpt>
      <trkpt lat="47.78157" lon="4.86629">
        <ele>325.2</ele>
      </trkpt>
      <trkpt lat="47.7815" lon="4.86607">
        <ele>324.2</ele>
      </trkpt>
      <trkpt lat="47.78144" lon="4.86589">
        <ele>324.1</ele>
      </trkpt>
      <trkpt lat="47.78135" lon="4.86571">
        <ele>323.5</ele>
      </trkpt>
      <trkpt lat="47.78119" lon="4.86543">
        <ele>322.7</ele>
      </trkpt>
      <trkpt lat="47.78113" lon="4.86533">
        <ele>322.2</ele>
      </trkpt>
      <trkpt lat="47.78104" lon="4.86521">
        <ele>322</ele>
      </trkpt>
      <trkpt lat="47.78089" lon="4.86497">
        <ele>321.9</ele>
      </trkpt>
      <trkpt lat="47.78083" lon="4.86487">
        <ele>321.5</ele>
      </trkpt>
      <trkpt lat="47.78072" lon="4.86473">
        <ele>321</ele>
      </trkpt>
      <trkpt lat="47.78069" lon="4.86468">
        <ele>320.9</ele>
      </trkpt>
      <trkpt lat="47.78069" lon="4.86463">
        <ele>320.8</ele>
      </trkpt>
      <trkpt lat="47.78068" lon="4.86458">
        <ele>320.7</ele>
      </trkpt>
      <trkpt lat="47.78063" lon="4.86442">
        <ele>320.3</ele>
      </trkpt>
      <trkpt lat="47.78057" lon="4.8642">
        <ele>320.1</ele>
      </trkpt>
      <trkpt lat="47.78048" lon="4.86397">
        <ele>319.6</ele>
      </trkpt>
      <trkpt lat="47.78033" lon="4.86352">
        <ele>320.2</ele>
      </trkpt>
      <trkpt lat="47.78026" lon="4.86326">
        <ele>319.9</ele>
      </trkpt>
      <trkpt lat="47.78024" lon="4.86316">
        <ele>319.7</ele>
      </trkpt>
      <trkpt lat="47.78024" lon="4.8631">
        <ele>319.7</ele>
      </trkpt>
      <trkpt lat="47.78024" lon="4.86304">
        <ele>319.7</ele>
      </trkpt>
      <trkpt lat="47.78025" lon="4.86294">
        <ele>319.8</ele>
      </trkpt>
      <trkpt lat="47.78026" lon="4.86276">
        <ele>319.9</ele>
      </trkpt>
      <trkpt lat="47.78027" lon="4.86263">
        <ele>319.9</ele>
      </trkpt>
      <trkpt lat="47.78027" lon="4.86258">
        <ele>319.9</ele>
      </trkpt>
      <trkpt lat="47.78026" lon="4.86252">
        <ele>319.9</ele>
      </trkpt>
      <trkpt lat="47.78025" lon="4.86247">
        <ele>319.8</ele>
      </trkpt>
      <trkpt lat="47.78022" lon="4.86232">
        <ele>319.6</ele>
      </trkpt>
      <trkpt lat="47.78021" lon="4.86225">
        <ele>319.5</ele>
      </trkpt>
      <trkpt lat="47.78019" lon="4.86209">
        <ele>319.4</ele>
      </trkpt>
      <trkpt lat="47.78019" lon="4.86188">
        <ele>319.4</ele>
      </trkpt>
      <trkpt lat="47.78019" lon="4.86168">
        <ele>319.4</ele>
      </trkpt>
      <trkpt lat="47.7802" lon="4.86145">
        <ele>319.4</ele>
      </trkpt>
      <trkpt lat="47.78021" lon="4.86134">
        <ele>319.5</ele>
      </trkpt>
      <trkpt lat="47.78024" lon="4.86109">
        <ele>319.7</ele>
      </trkpt>
      <trkpt lat="47.78028" lon="4.86084">
        <ele>320</ele>
      </trkpt>
      <trkpt lat="47.78028" lon="4.86078">
        <ele>320</ele>
      </trkpt>
      <trkpt lat="47.78032" lon="4.86054">
        <ele>320.1</ele>
      </trkpt>
      <trkpt lat="47.78035" lon="4.86026">
        <ele>319.5</ele>
      </trkpt>
      <trkpt lat="47.78039" lon="4.86002">
        <ele>318.9</ele>
      </trkpt>
      <trkpt lat="47.78044" lon="4.85969">
        <ele>318.6</ele>
      </trkpt>
      <trkpt lat="47.78045" lon="4.85963">
        <ele>318.5</ele>
      </trkpt>
      <trkpt lat="47.78051" lon="4.85941">
        <ele>318.4</ele>
      </trkpt>
      <trkpt lat="47.7806" lon="4.85917">
        <ele>318.3</ele>
      </trkpt>
      <trkpt lat="47.78065" lon="4.85907">
        <ele>318.3</ele>
      </trkpt>
      <trkpt lat="47.78068" lon="4.85898">
        <ele>318.2</ele>
      </trkpt>
      <trkpt lat="47.7807" lon="4.8589">
        <ele>318.1</ele>
      </trkpt>
      <trkpt lat="47.78072" lon="4.85883">
        <ele>318</ele>
      </trkpt>
      <trkpt lat="47.78074" lon="4.85875">
        <ele>317.8</ele>
      </trkpt>
      <trkpt lat="47.78077" lon="4.85861">
        <ele>317.5</ele>
      </trkpt>
      <trkpt lat="47.78081" lon="4.85834">
        <ele>316.9</ele>
      </trkpt>
      <trkpt lat="47.78084" lon="4.85819">
        <ele>316.5</ele>
      </trkpt>
      <trkpt lat="47.78085" lon="4.85806">
        <ele>316.1</ele>
      </trkpt>
      <trkpt lat="47.78088" lon="4.85807">
        <ele>316.4</ele>
      </trkpt>
      <trkpt lat="47.78093" lon="4.85807">
        <ele>316.7</ele>
      </trkpt>
      <trkpt lat="47.78108" lon="4.85805">
        <ele>317.7</ele>
      </trkpt>
      <trkpt lat="47.78118" lon="4.85802">
        <ele>318</ele>
      </trkpt>
      <trkpt lat="47.78128" lon="4.85799">
        <ele>318.3</ele>
      </trkpt>
      <trkpt lat="47.78134" lon="4.85796">
        <ele>318.4</ele>
      </trkpt>
      <trkpt lat="47.78138" lon="4.85793">
        <ele>318.5</ele>
      </trkpt>
      <trkpt lat="47.78151" lon="4.85789">
        <ele>318</ele>
      </trkpt>
      <trkpt lat="47.78155" lon="4.85787">
        <ele>317.8</ele>
      </trkpt>
      <trkpt lat="47.78159" lon="4.85784">
        <ele>317.5</ele>
      </trkpt>
      <trkpt lat="47.78161" lon="4.85779">
        <ele>317.2</ele>
      </trkpt>
      <trkpt lat="47.78164" lon="4.85771">
        <ele>317</ele>
      </trkpt>
      <trkpt lat="47.78168" lon="4.8576">
        <ele>317</ele>
        <extensions>
          <visugpx:TrkExtension xmlns:visugpx="https://www.visugpx.com/editgpx/">
            <visugpx:node>2</visugpx:node>
            </visugpx:TrkExtension>
        </extensions>
      </trkpt>
    </trkseg>
  </trk>
</gpx>